createdAt,value
2023-05-20T00:00:01.902Z,17.30
2023-05-20T00:02:30.553Z,17.40
2023-05-20T00:04:59.187Z,17.40
2023-05-20T00:07:27.774Z,17.30
2023-05-20T00:09:57.633Z,17.30
2023-05-20T00:12:26.138Z,17.30
2023-05-20T00:14:55.894Z,17.30
2023-05-20T00:17:26.615Z,17.40
2023-05-20T00:19:55.310Z,17.40
2023-05-20T00:22:23.831Z,17.40
2023-05-20T00:24:52.219Z,17.40
2023-05-20T00:27:22.071Z,17.30
2023-05-20T00:29:50.731Z,17.30
2023-05-20T00:32:19.250Z,17.30
2023-05-20T00:34:56.775Z,17.30
2023-05-20T00:37:25.402Z,17.30
2023-05-20T00:39:54.044Z,17.30
2023-05-20T00:42:24.175Z,17.30
2023-05-20T00:44:52.685Z,17.30
2023-05-20T00:47:21.817Z,17.30
2023-05-20T00:49:51.084Z,17.30
2023-05-20T00:52:19.623Z,17.30
2023-05-20T00:54:48.092Z,17.30
2023-05-20T00:57:16.698Z,17.40
2023-05-20T00:59:46.647Z,17.30
2023-05-20T01:02:15.386Z,17.30
2023-05-20T01:04:47.348Z,17.30
2023-05-20T01:07:16.939Z,17.30
2023-05-20T01:09:45.778Z,17.30
2023-05-20T01:12:15.505Z,17.20
2023-05-20T01:14:49.604Z,17.20
2023-05-20T01:17:21.016Z,17.20
2023-05-20T01:19:50.198Z,17.20
2023-05-20T01:22:18.602Z,17.20
2023-05-20T01:24:49.471Z,17.20
2023-05-20T01:27:20.685Z,17.20
2023-05-20T01:29:50.659Z,17.20
2023-05-20T01:32:20.635Z,17.20
2023-05-20T01:34:49.897Z,17.20
2023-05-20T01:37:18.652Z,17.20
2023-05-20T01:39:49.768Z,17.20
2023-05-20T01:42:18.695Z,17.20
2023-05-20T01:44:47.199Z,17.20
2023-05-20T01:47:15.689Z,17.20
2023-05-20T01:49:46.227Z,17.20
2023-05-20T01:52:14.920Z,17.20
2023-05-20T01:54:43.380Z,17.20
2023-05-20T01:57:13.244Z,17.10
2023-05-20T01:59:41.774Z,17.10
2023-05-20T02:02:10.366Z,17.20
2023-05-20T02:04:38.843Z,17.20
2023-05-20T02:07:07.291Z,17.10
2023-05-20T02:09:35.797Z,17.10
2023-05-20T02:12:04.446Z,17.10
2023-05-20T02:14:34.264Z,17.10
2023-05-20T02:17:02.791Z,17.20
2023-05-20T02:19:31.284Z,17.10
2023-05-20T02:21:59.831Z,17.10
2023-05-20T02:24:28.268Z,17.10
2023-05-20T02:26:58.972Z,17.10
2023-05-20T02:29:27.417Z,17.10
2023-05-20T02:31:57.210Z,17.10
2023-05-20T02:34:26.415Z,17.10
2023-05-20T02:36:55.454Z,17.10
2023-05-20T02:39:24.118Z,17.10
2023-05-20T02:41:52.583Z,17.10
2023-05-20T02:44:21.545Z,17.10
2023-05-20T02:46:49.921Z,17.10
2023-05-20T02:49:19.800Z,17.00
2023-05-20T02:51:48.252Z,16.90
2023-05-20T02:54:16.983Z,16.80
2023-05-20T02:56:45.438Z,16.70
2023-05-20T02:59:13.879Z,16.60
2023-05-20T03:01:42.314Z,16.60
2023-05-20T03:04:11.702Z,16.50
2023-05-20T03:06:44.523Z,16.60
2023-05-20T03:09:14.148Z,16.60
2023-05-20T03:11:42.560Z,16.60
2023-05-20T03:14:10.984Z,16.40
2023-05-20T03:16:39.651Z,16.30
2023-05-20T03:19:08.118Z,16.30
2023-05-20T03:21:36.724Z,16.30
2023-05-20T03:24:07.381Z,16.30
2023-05-20T03:26:37.743Z,16.40
2023-05-20T03:29:06.844Z,16.40
2023-05-20T03:31:35.608Z,16.50
2023-05-20T03:34:04.003Z,16.50
2023-05-20T03:36:32.528Z,16.60
2023-05-20T03:39:01.866Z,16.60
2023-05-20T03:41:31.665Z,16.60
2023-05-20T03:44:00.165Z,16.50
2023-05-20T03:46:28.749Z,16.50
2023-05-20T03:48:57.279Z,16.50
2023-05-20T03:51:25.972Z,16.50
2023-05-20T03:53:54.364Z,16.50
2023-05-20T03:56:23.106Z,16.60
2023-05-20T03:58:53.620Z,16.60
2023-05-20T04:01:25.778Z,16.70
2023-05-20T04:03:54.279Z,16.70
2023-05-20T04:06:22.854Z,16.70
2023-05-20T04:08:51.495Z,16.70
2023-05-20T04:11:19.948Z,16.80
2023-05-20T04:13:48.419Z,16.80
2023-05-20T04:16:18.346Z,16.70
2023-05-20T04:18:48.379Z,16.80
2023-05-20T04:21:16.906Z,16.80
2023-05-20T04:23:45.392Z,16.70
2023-05-20T04:26:13.763Z,16.80
2023-05-20T04:28:42.402Z,16.80
2023-05-20T04:31:11.520Z,16.80
2023-05-20T04:33:41.337Z,16.80
2023-05-20T04:36:12.233Z,16.80
2023-05-20T04:38:42.421Z,16.90
2023-05-20T04:41:10.985Z,16.80
2023-05-20T04:43:40.271Z,16.80
2023-05-20T04:46:09.861Z,16.80
2023-05-20T04:48:38.440Z,16.80
2023-05-20T04:51:08.789Z,16.80
2023-05-20T04:53:37.176Z,16.80
2023-05-20T04:56:06.263Z,16.80
2023-05-20T04:58:34.862Z,16.70
2023-05-20T05:01:03.455Z,16.70
2023-05-20T05:03:31.989Z,16.70
2023-05-20T05:06:00.509Z,16.70
2023-05-20T05:08:30.387Z,16.70
2023-05-20T05:10:58.847Z,16.70
2023-05-20T05:13:27.354Z,16.80
2023-05-20T05:16:01.658Z,16.80
2023-05-20T05:18:30.189Z,16.80
2023-05-20T05:21:02.175Z,16.80
2023-05-20T05:23:32.174Z,16.80
2023-05-20T05:26:00.600Z,16.80
2023-05-20T05:28:29.070Z,16.80
2023-05-20T05:30:58.089Z,16.90
2023-05-20T05:33:26.564Z,16.90
2023-05-20T05:35:56.843Z,16.90
2023-05-20T05:38:25.368Z,16.90
2023-05-20T05:40:55.513Z,16.80
2023-05-20T05:43:23.985Z,16.90
2023-05-20T05:45:52.567Z,17.00
2023-05-20T05:48:20.995Z,16.90
2023-05-20T05:50:49.472Z,17.00
2023-05-20T05:53:17.968Z,16.90
2023-05-20T05:55:47.306Z,16.90
2023-05-20T05:58:17.710Z,16.90
2023-05-20T06:00:46.245Z,17.00
2023-05-20T06:03:14.786Z,16.90
2023-05-20T06:05:46.319Z,16.90
2023-05-20T06:08:14.800Z,16.90
2023-05-20T06:10:43.411Z,16.90
2023-05-20T06:13:11.872Z,16.90
2023-05-20T06:15:42.397Z,17.00
2023-05-20T06:18:11.933Z,17.10
2023-05-20T06:20:41.047Z,17.00
2023-05-20T06:23:09.495Z,17.00
2023-05-20T06:25:38.080Z,17.10
2023-05-20T06:28:06.535Z,17.10
2023-05-20T06:30:34.898Z,17.10
2023-05-20T06:33:04.986Z,17.00
2023-05-20T06:35:34.939Z,17.10
2023-05-20T06:38:03.998Z,17.10
2023-05-20T06:40:32.489Z,17.10
2023-05-20T06:43:00.910Z,17.10
2023-05-20T06:45:29.530Z,17.10
2023-05-20T06:47:58.070Z,17.10
2023-05-20T06:50:28.437Z,17.10
2023-05-20T06:52:56.904Z,17.10
2023-05-20T06:55:25.363Z,17.10
2023-05-20T06:57:53.781Z,17.20
2023-05-20T07:00:22.346Z,17.20
2023-05-20T07:02:50.925Z,17.20
2023-05-20T07:05:19.386Z,17.20
2023-05-20T07:07:49.189Z,17.20
2023-05-20T07:10:17.737Z,17.20
2023-05-20T07:12:46.186Z,17.20
2023-05-20T07:15:14.755Z,17.20
2023-05-20T07:17:43.254Z,17.30
2023-05-20T07:20:11.948Z,17.20
2023-05-20T07:22:40.408Z,17.20
2023-05-20T07:25:10.773Z,17.10
2023-05-20T07:27:39.170Z,17.00
2023-05-20T07:30:10.106Z,16.90
2023-05-20T07:32:38.631Z,16.90
2023-05-20T07:35:07.519Z,16.90
2023-05-20T07:37:36.021Z,16.90
2023-05-20T07:40:05.642Z,16.90
2023-05-20T07:42:35.401Z,16.90
2023-05-20T07:45:03.858Z,17.00
2023-05-20T07:47:32.642Z,17.00
2023-05-20T07:50:01.159Z,17.00
2023-05-20T07:52:30.962Z,17.00
2023-05-20T07:55:00.669Z,17.00
2023-05-20T07:57:29.136Z,17.00
2023-05-20T07:59:58.962Z,17.00
2023-05-20T08:02:27.750Z,17.10
2023-05-20T08:04:56.224Z,17.10
2023-05-20T08:07:25.075Z,17.10
2023-05-20T08:09:53.574Z,17.20
2023-05-20T08:12:22.025Z,17.10
2023-05-20T08:14:50.474Z,17.10
2023-05-20T08:17:20.320Z,17.20
2023-05-20T08:19:48.748Z,17.20
2023-05-20T08:22:17.211Z,17.20
2023-05-20T08:24:45.626Z,17.20
2023-05-20T08:27:14.088Z,17.20
2023-05-20T08:29:42.536Z,17.20
2023-05-20T08:32:11.344Z,17.30
2023-05-20T08:34:41.183Z,17.30
2023-05-20T08:37:09.676Z,17.40
2023-05-20T08:39:38.120Z,17.40
2023-05-20T08:42:08.130Z,17.40
2023-05-20T08:44:37.032Z,17.40
2023-05-20T08:47:07.024Z,17.50
2023-05-20T08:49:35.550Z,17.30
2023-05-20T08:52:05.556Z,17.40
2023-05-20T08:54:42.850Z,17.40
2023-05-20T08:57:13.977Z,17.40
2023-05-20T08:59:43.845Z,17.50
2023-05-20T09:02:12.539Z,17.60
2023-05-20T09:04:41.194Z,17.80
2023-05-20T09:07:11.096Z,17.70
2023-05-20T09:09:39.575Z,17.70
2023-05-20T09:12:08.912Z,17.80
2023-05-20T09:14:37.365Z,17.80
2023-05-20T09:17:05.911Z,17.80
2023-05-20T09:19:34.458Z,17.60
2023-05-20T09:22:05.208Z,17.60
2023-05-20T09:24:35.048Z,17.50
2023-05-20T09:27:03.539Z,17.50
2023-05-20T09:29:34.447Z,17.50
2023-05-20T09:32:03.380Z,17.60
2023-05-20T09:34:31.874Z,17.70
2023-05-20T09:37:00.593Z,17.60
2023-05-20T09:39:31.063Z,17.80
2023-05-20T09:42:04.211Z,17.90
2023-05-20T09:44:33.438Z,18.10
2023-05-20T09:47:02.373Z,18.20
2023-05-20T09:49:32.229Z,18.20
2023-05-20T09:52:01.513Z,18.30
2023-05-20T09:54:30.881Z,18.30
2023-05-20T09:57:01.114Z,18.40
2023-05-20T09:59:31.426Z,18.50
2023-05-20T10:01:59.880Z,18.40
2023-05-20T10:04:29.086Z,18.40
2023-05-20T10:07:06.403Z,18.20
2023-05-20T10:09:44.045Z,18.40
2023-05-20T10:12:19.040Z,18.40
2023-05-20T10:14:52.436Z,18.30
2023-05-20T10:17:26.471Z,18.20
2023-05-20T10:19:59.023Z,18.00
2023-05-20T10:22:28.307Z,17.80
2023-05-20T10:25:00.021Z,17.70
2023-05-20T10:27:29.911Z,17.70
2023-05-20T10:29:58.607Z,17.60
2023-05-20T10:32:27.887Z,17.60
2023-05-20T10:35:00.180Z,17.70
2023-05-20T10:37:29.308Z,17.60
2023-05-20T10:40:08.357Z,17.60
2023-05-20T10:42:38.481Z,17.40
2023-05-20T10:45:08.180Z,17.50
2023-05-20T10:47:37.143Z,17.40
2023-05-20T10:50:06.436Z,17.30
2023-05-20T10:52:35.464Z,17.30
2023-05-20T10:55:05.139Z,17.50
2023-05-20T10:57:34.135Z,17.50
2023-05-20T11:00:10.889Z,17.60
2023-05-20T11:02:39.542Z,17.60
2023-05-20T11:05:12.109Z,17.50
2023-05-20T11:07:40.596Z,17.40
2023-05-20T11:10:10.000Z,17.30
2023-05-20T11:12:38.652Z,17.30
2023-05-20T11:15:09.289Z,17.30
2023-05-20T11:17:37.710Z,17.40
2023-05-20T11:20:06.823Z,17.50
2023-05-20T11:22:35.249Z,17.40
2023-05-20T11:25:06.354Z,17.40
2023-05-20T11:27:34.968Z,17.30
2023-05-20T11:30:04.160Z,17.30
2023-05-20T11:32:34.059Z,17.20
2023-05-20T11:35:02.618Z,17.20
2023-05-20T11:37:31.330Z,17.20
2023-05-20T11:40:09.537Z,17.30
2023-05-20T11:42:37.976Z,17.30
2023-05-20T11:45:06.957Z,17.20
2023-05-20T11:47:36.891Z,17.20
2023-05-20T11:50:05.744Z,17.20
2023-05-20T11:52:34.743Z,17.30
2023-05-20T11:55:03.190Z,17.40
2023-05-20T11:57:32.250Z,17.30
2023-05-20T12:00:00.645Z,17.40
2023-05-20T12:02:29.116Z,17.50
2023-05-20T12:04:59.523Z,17.50
2023-05-20T12:07:28.541Z,17.60
2023-05-20T12:09:56.958Z,17.60
2023-05-20T12:12:25.695Z,17.60
2023-05-20T12:14:54.097Z,17.70
2023-05-20T12:17:22.540Z,17.80
2023-05-20T12:19:51.062Z,17.90
2023-05-20T12:22:20.920Z,18.00
2023-05-20T12:24:49.326Z,17.90
2023-05-20T12:27:17.754Z,17.90
2023-05-20T12:29:46.146Z,17.90
2023-05-20T12:32:14.683Z,18.00
2023-05-20T12:34:43.284Z,17.90
2023-05-20T12:37:11.682Z,17.90
2023-05-20T12:39:41.481Z,17.90
2023-05-20T12:42:10.009Z,17.80
2023-05-20T12:44:38.474Z,17.90
2023-05-20T12:47:06.890Z,18.00
2023-05-20T12:49:35.391Z,17.90
2023-05-20T12:52:08.591Z,18.00
2023-05-20T12:54:41.576Z,18.10
2023-05-20T12:57:10.022Z,18.10
2023-05-20T12:59:38.508Z,18.00
2023-05-20T13:02:07.065Z,18.00
2023-05-20T13:04:35.555Z,18.10
2023-05-20T13:07:04.335Z,18.10
2023-05-20T13:09:33.336Z,18.10
2023-05-20T13:12:03.295Z,18.20
2023-05-20T13:14:31.997Z,18.20
2023-05-20T13:17:00.727Z,18.30
2023-05-20T13:19:29.394Z,18.40
2023-05-20T13:21:57.938Z,18.30
2023-05-20T13:24:26.410Z,18.10
2023-05-20T13:26:54.797Z,18.10
2023-05-20T13:29:24.657Z,18.10
2023-05-20T13:31:53.061Z,18.10
2023-05-20T13:34:21.710Z,18.10
2023-05-20T13:36:50.111Z,18.10
2023-05-20T13:39:18.569Z,18.20
2023-05-20T13:41:47.143Z,18.20
2023-05-20T13:44:17.553Z,18.20
2023-05-20T13:46:47.424Z,18.10
2023-05-20T13:49:15.976Z,18.00
2023-05-20T13:51:44.430Z,17.80
2023-05-20T13:54:12.863Z,17.80
2023-05-20T13:56:41.362Z,17.80
2023-05-20T13:59:09.865Z,17.80
2023-05-20T14:01:41.176Z,17.80
2023-05-20T14:04:11.175Z,17.90
2023-05-20T14:06:39.687Z,18.00
2023-05-20T14:09:09.207Z,17.90
2023-05-20T14:11:38.196Z,17.90
2023-05-20T14:14:06.747Z,18.00
2023-05-20T14:16:35.345Z,18.00
2023-05-20T14:19:03.938Z,18.10
2023-05-20T14:21:34.113Z,18.10
2023-05-20T14:24:02.752Z,18.20
2023-05-20T14:26:31.228Z,17.90
2023-05-20T14:28:59.782Z,17.90
2023-05-20T14:31:28.675Z,17.90
2023-05-20T14:33:57.166Z,17.90
2023-05-20T14:36:25.913Z,17.80
2023-05-20T14:38:55.767Z,17.70
2023-05-20T14:41:24.277Z,17.60
2023-05-20T14:43:52.843Z,17.60
2023-05-20T14:46:21.344Z,17.60
2023-05-20T14:48:49.860Z,17.60
2023-05-20T14:51:18.342Z,17.70
2023-05-20T14:53:46.802Z,17.60
2023-05-20T14:56:16.656Z,17.60
2023-05-20T14:58:45.175Z,17.60
2023-05-20T15:01:13.691Z,17.40
2023-05-20T15:03:42.229Z,17.30
2023-05-20T15:06:10.728Z,17.30
2023-05-20T15:08:48.411Z,17.30
2023-05-20T15:11:18.394Z,17.20
2023-05-20T15:13:48.316Z,17.10
2023-05-20T15:16:18.292Z,17.00
2023-05-20T15:18:47.161Z,17.00
2023-05-20T15:21:15.633Z,17.00
2023-05-20T15:23:44.124Z,16.90
2023-05-20T15:26:13.089Z,17.00
2023-05-20T15:28:43.011Z,17.00
2023-05-20T15:31:11.574Z,17.00
2023-05-20T15:33:40.102Z,16.90
2023-05-20T15:36:08.852Z,16.90
2023-05-20T15:38:37.320Z,17.00
2023-05-20T15:41:06.661Z,16.90
2023-05-20T15:43:35.161Z,16.90
2023-05-20T15:46:05.124Z,17.00
2023-05-20T15:48:34.835Z,17.10
2023-05-20T15:51:03.328Z,17.10
2023-05-20T15:53:31.811Z,17.10
2023-05-20T15:56:00.322Z,17.20
2023-05-20T15:58:28.747Z,17.20
2023-05-20T16:00:58.211Z,17.30
2023-05-20T16:03:28.129Z,17.40
2023-05-20T16:05:56.616Z,17.50
2023-05-20T16:08:25.126Z,17.30
2023-05-20T16:10:53.968Z,17.40
2023-05-20T16:13:22.329Z,17.30
2023-05-20T16:15:51.438Z,17.20
2023-05-20T16:18:19.969Z,17.20
2023-05-20T16:20:49.807Z,17.10
2023-05-20T16:23:18.295Z,17.00
2023-05-20T16:25:47.048Z,16.90
2023-05-20T16:28:15.869Z,16.80
2023-05-20T16:30:44.349Z,16.70
2023-05-20T16:33:13.372Z,16.70
2023-05-20T16:35:41.891Z,16.80
2023-05-20T16:38:11.722Z,16.70
2023-05-20T16:40:40.251Z,16.90
2023-05-20T16:43:08.684Z,16.90
2023-05-20T16:45:37.377Z,16.80
2023-05-20T16:48:06.233Z,16.90
2023-05-20T16:50:34.907Z,16.90
2023-05-20T16:53:03.490Z,16.90
2023-05-20T16:55:33.337Z,16.90
2023-05-20T16:58:02.654Z,16.90
2023-05-20T17:00:31.278Z,17.00
2023-05-20T17:02:59.804Z,17.00
2023-05-20T17:05:28.281Z,17.00
2023-05-20T17:08:00.138Z,17.00
2023-05-20T17:10:29.610Z,17.00
2023-05-20T17:12:59.556Z,17.10
2023-05-20T17:15:28.177Z,17.10
2023-05-20T17:17:56.666Z,17.10
2023-05-20T17:20:25.182Z,17.10
2023-05-20T17:22:53.702Z,17.20
2023-05-20T17:25:22.249Z,17.20
2023-05-20T17:27:50.875Z,17.30
2023-05-20T17:30:20.758Z,17.30
2023-05-20T17:32:50.484Z,17.30
2023-05-20T17:35:20.762Z,17.30
2023-05-20T17:37:49.218Z,17.30
2023-05-20T17:40:18.099Z,17.30
2023-05-20T17:42:48.236Z,17.20
2023-05-20T17:45:16.758Z,17.20
2023-05-20T17:47:46.619Z,17.20
2023-05-20T17:50:16.691Z,17.30
2023-05-20T17:52:45.118Z,17.30
2023-05-20T17:55:14.660Z,17.20
2023-05-20T17:57:43.213Z,17.20
2023-05-20T18:00:13.139Z,17.20
2023-05-20T18:02:48.300Z,17.20
2023-05-20T18:05:18.356Z,17.30
2023-05-20T18:07:46.773Z,17.20
2023-05-20T18:10:15.489Z,17.20
2023-05-20T18:12:45.367Z,17.10
2023-05-20T18:15:14.387Z,17.10
2023-05-20T18:17:42.925Z,17.00
2023-05-20T18:20:12.102Z,17.00
2023-05-20T18:22:45.364Z,17.10
2023-05-20T18:25:13.889Z,17.10
2023-05-20T18:27:42.320Z,16.90
2023-05-20T18:30:11.116Z,16.90
2023-05-20T18:32:39.663Z,16.80
2023-05-20T18:35:08.601Z,16.80
2023-05-20T18:37:37.034Z,16.90
2023-05-20T18:40:07.697Z,16.70
2023-05-20T18:42:36.086Z,16.70
2023-05-20T18:45:04.837Z,16.60
2023-05-20T18:47:33.353Z,16.50
2023-05-20T18:50:01.808Z,16.50
2023-05-20T18:52:30.339Z,16.40
2023-05-20T18:54:58.811Z,16.30
2023-05-20T18:57:28.714Z,16.30
2023-05-20T18:59:57.122Z,16.30
2023-05-20T19:02:25.615Z,16.20
2023-05-20T19:04:54.065Z,16.20
2023-05-20T19:07:22.909Z,16.10
2023-05-20T19:09:52.103Z,16.10
2023-05-20T19:12:20.581Z,16.10
2023-05-20T19:14:50.568Z,16.20
2023-05-20T19:17:20.949Z,16.20
2023-05-20T19:19:49.734Z,16.20
2023-05-20T19:22:18.253Z,16.20
2023-05-20T19:24:46.802Z,16.30
2023-05-20T19:27:15.275Z,16.30
2023-05-20T19:29:43.714Z,16.40
2023-05-20T19:32:13.602Z,16.40
2023-05-20T19:34:42.083Z,16.40
2023-05-20T19:37:10.725Z,16.50
2023-05-20T19:39:39.274Z,16.50
2023-05-20T19:42:07.764Z,16.60
2023-05-20T19:44:36.280Z,16.50
2023-05-20T19:47:05.622Z,16.40
2023-05-20T19:49:35.601Z,16.30
2023-05-20T19:52:04.115Z,16.20
2023-05-20T19:54:32.545Z,16.30
2023-05-20T19:57:00.963Z,16.30
2023-05-20T19:59:29.332Z,16.30
2023-05-20T20:02:02.789Z,16.30
2023-05-20T20:04:31.425Z,16.30
2023-05-20T20:07:01.587Z,16.30
2023-05-20T20:09:30.029Z,16.30
2023-05-20T20:11:58.646Z,16.40
2023-05-20T20:14:27.164Z,16.40
2023-05-20T20:16:55.648Z,16.40
2023-05-20T20:19:26.211Z,16.40
2023-05-20T20:21:56.648Z,16.50
2023-05-20T20:24:27.512Z,16.60
2023-05-20T20:26:57.004Z,16.50
2023-05-20T20:29:25.579Z,16.50
2023-05-20T20:31:54.099Z,16.50
2023-05-20T20:34:22.589Z,16.60
2023-05-20T20:36:51.450Z,16.60
2023-05-20T20:39:20.166Z,16.60
2023-05-20T20:41:50.931Z,16.60
2023-05-20T20:44:21.015Z,16.60
2023-05-20T20:46:50.852Z,16.50
2023-05-20T20:49:19.487Z,16.50
2023-05-20T20:51:48.181Z,16.50
2023-05-20T20:54:16.833Z,16.50
2023-05-20T20:56:47.084Z,16.50
2023-05-20T20:59:17.112Z,16.60
2023-05-20T21:01:45.772Z,16.60
2023-05-20T21:04:14.681Z,16.50
2023-05-20T21:06:46.036Z,16.50
2023-05-20T21:09:14.653Z,16.50
2023-05-20T21:11:43.296Z,16.50
2023-05-20T21:14:12.156Z,16.50
2023-05-20T21:16:43.248Z,16.50
2023-05-20T21:19:11.718Z,16.50
2023-05-20T21:21:40.172Z,16.40
2023-05-20T21:24:08.590Z,16.50
2023-05-20T21:26:37.053Z,16.50
2023-05-20T21:29:06.112Z,16.50
2023-05-20T21:31:34.665Z,16.50
2023-05-20T21:34:04.618Z,16.60
2023-05-20T21:36:33.100Z,16.60
2023-05-20T21:39:01.571Z,16.60
2023-05-20T21:41:30.052Z,16.50
2023-05-20T21:43:58.535Z,16.50
2023-05-20T21:46:26.960Z,16.40
2023-05-20T21:48:55.357Z,16.50
2023-05-20T21:51:25.238Z,16.50
2023-05-20T21:53:53.678Z,16.50
2023-05-20T21:56:22.706Z,16.40
2023-05-20T21:58:51.227Z,16.40
2023-05-20T22:01:19.949Z,16.40
2023-05-20T22:03:51.262Z,16.40
2023-05-20T22:06:21.485Z,16.40
2023-05-20T22:08:51.478Z,16.40
2023-05-20T22:11:21.697Z,16.40
2023-05-20T22:13:50.221Z,16.50
2023-05-20T22:16:18.837Z,16.40
2023-05-20T22:18:49.714Z,16.40
2023-05-20T22:21:19.906Z,16.50
2023-05-20T22:23:48.971Z,16.40
2023-05-20T22:26:19.910Z,16.40
2023-05-20T22:28:48.473Z,16.40
2023-05-20T22:31:16.920Z,16.40
2023-05-20T22:33:45.461Z,16.40
2023-05-20T22:36:13.913Z,16.50
2023-05-20T22:38:42.991Z,16.50
2023-05-20T22:41:11.557Z,16.50
2023-05-20T22:43:41.373Z,16.40
2023-05-20T22:46:09.831Z,16.40
2023-05-20T22:48:38.774Z,16.40
2023-05-20T22:51:08.975Z,16.40
2023-05-20T22:53:37.528Z,16.40
2023-05-20T22:56:06.599Z,16.40
2023-05-20T22:58:39.748Z,16.30
2023-05-20T23:01:09.684Z,16.40
2023-05-20T23:03:38.535Z,16.40
2023-05-20T23:06:07.023Z,16.30
2023-05-20T23:08:35.530Z,16.30
2023-05-20T23:11:03.975Z,16.30
2023-05-20T23:13:32.438Z,16.30
2023-05-20T23:16:01.511Z,16.30
2023-05-20T23:18:31.451Z,16.30
2023-05-20T23:21:00.705Z,16.30
2023-05-20T23:23:31.567Z,16.40
2023-05-20T23:26:01.696Z,16.40
2023-05-20T23:28:30.199Z,16.30
2023-05-20T23:30:58.661Z,16.40
2023-05-20T23:33:27.264Z,16.40
2023-05-20T23:35:57.388Z,16.40
2023-05-20T23:38:26.022Z,16.40
2023-05-20T23:40:54.495Z,16.40
2023-05-20T23:43:22.998Z,16.40
2023-05-20T23:45:51.474Z,16.40
2023-05-20T23:48:19.955Z,16.40
2023-05-20T23:50:48.465Z,16.40
2023-05-20T23:53:18.257Z,16.40
2023-05-20T23:55:49.530Z,16.50
2023-05-20T23:58:17.986Z,16.40
